Terminal Aerodrome Forecast
Issued by NWS Green Bay, WI

Home | Current Version | Previous Version | Graphics & Text | Print | Product List | Glossary On
Versions: 1 2 3 4 5 6 7 8 9 10 11 12 13 14 15 16 17 18 19 20 21 22 23 24 25 26 27 28 29 30 31 32
000
FTUS43 KGRB 290500
TAFGRB
TAF
KGRB 290520Z 2906/3006 18010KT P6SM BKN250
     FM290800 19012G18KT P6SM BKN150 WS017/21040KT
     FM291200 19018G28KT P6SM SCT040 BKN080 WS020/22055KT
     FM291400 19021G33KT 4SM -SN BKN040
      TEMPO 2914/2917 1 1/2SM -RASNPL OVC015
     FM291700 22022G34KT P6SM -RA BKN025
     FM292300 27021G33KT P6SM BKN050
     FM300300 28013G23KT P6SM SCT050=

USA.gov is the U.S. government's official web portal to all federal, state and local government web resources and services.